Maraa, Brazil
Current Conditions -  °F | °C
As of 7:00 PM on Thursday 27 Nov 2014 (Local Time) from SBTF Reporting Station
Overcast Overcast  
Wind Chill: 79°   Ceiling: 10000
Heat Index: 83°   Visibility: 6mi
Dew Point: 77°   Wind: 3mph
Humidity: 94%   Direction: 200°SSW
Pressure: 29.8"   Gusts: NA
Location:  1.86°S, 65.58°W
Report Text: SBTF 272300Z 20003KT 9999 SCT008 OVC100 26/25 Q1009
Loading
Personal Weather Stations






























Interactive Weather Map New forecast layout! Learn more

10-Day Weather Forecast

Advertisements
Track Severe Weather on mobile